sensor_id;sensor_type;location;lat;lon;timestamp;temperature;humidity
24444;DHT22;13346;50.984;5.822;2023-07-24T00:00:46;17.90;99.90
24444;DHT22;13346;50.984;5.822;2023-07-24T00:03:13;17.90;99.90
24444;DHT22;13346;50.984;5.822;2023-07-24T00:05:41;18.00;99.90
24444;DHT22;13346;50.984;5.822;2023-07-24T00:08:08;18.20;99.90
24444;DHT22;13346;50.984;5.822;2023-07-24T00:10:35;18.30;99.90
24444;DHT22;13346;50.984;5.822;2023-07-24T00:13:02;18.30;99.90
24444;DHT22;13346;50.984;5.822;2023-07-24T00:15:30;18.20;99.90
24444;DHT22;13346;50.984;5.822;2023-07-24T00:17:58;18.30;99.90
24444;DHT22;13346;50.984;5.822;2023-07-24T00:20:25;18.30;99.90
24444;DHT22;13346;50.984;5.822;2023-07-24T00:22:53;18.20;99.90
24444;DHT22;13346;50.984;5.822;2023-07-24T00:25:20;18.40;99.90
24444;DHT22;13346;50.984;5.822;2023-07-24T00:27:47;18.50;99.90
24444;DHT22;13346;50.984;5.822;2023-07-24T00:30:15;18.40;99.90
24444;DHT22;13346;50.984;5.822;2023-07-24T00:32:42;18.50;99.90
24444;DHT22;13346;50.984;5.822;2023-07-24T00:35:11;18.40;99.90
24444;DHT22;13346;50.984;5.822;2023-07-24T00:37:38;18.20;99.90
24444;DHT22;13346;50.984;5.822;2023-07-24T00:40:07;18.50;99.90
24444;DHT22;13346;50.984;5.822;2023-07-24T00:42:34;18.50;99.90
24444;DHT22;13346;50.984;5.822;2023-07-24T00:45:01;18.50;99.90
24444;DHT22;13346;50.984;5.822;2023-07-24T00:47:29;18.50;99.90
24444;DHT22;13346;50.984;5.822;2023-07-24T00:49:57;18.60;99.90
24444;DHT22;13346;50.984;5.822;2023-07-24T00:52:25;18.60;99.90
24444;DHT22;13346;50.984;5.822;2023-07-24T00:54:53;18.60;99.90
24444;DHT22;13346;50.984;5.822;2023-07-24T00:57:22;18.40;99.90
24444;DHT22;13346;50.984;5.822;2023-07-24T00:59:50;18.60;99.90
24444;DHT22;13346;50.984;5.822;2023-07-24T01:02:17;18.60;99.90
24444;DHT22;13346;50.984;5.822;2023-07-24T01:04:45;18.80;99.90
24444;DHT22;13346;50.984;5.822;2023-07-24T01:07:12;18.70;99.90
24444;DHT22;13346;50.984;5.822;2023-07-24T01:09:41;18.80;99.90
24444;DHT22;13346;50.984;5.822;2023-07-24T01:12:13;18.70;99.90
24444;DHT22;13346;50.984;5.822;2023-07-24T01:14:46;18.70;99.90
24444;DHT22;13346;50.984;5.822;2023-07-24T01:17:15;18.60;99.90
24444;DHT22;13346;50.984;5.822;2023-07-24T01:19:48;18.60;99.90
24444;DHT22;13346;50.984;5.822;2023-07-24T01:22:24;18.60;99.90
24444;DHT22;13346;50.984;5.822;2023-07-24T01:25:03;18.50;99.90
24444;DHT22;13346;50.984;5.822;2023-07-24T01:27:32;18.60;99.90
24444;DHT22;13346;50.984;5.822;2023-07-24T01:30:00;18.70;99.90
24444;DHT22;13346;50.984;5.822;2023-07-24T01:32:27;18.70;99.90
24444;DHT22;13346;50.984;5.822;2023-07-24T01:34:55;18.60;99.90
24444;DHT22;13346;50.984;5.822;2023-07-24T01:37:22;18.60;99.90
24444;DHT22;13346;50.984;5.822;2023-07-24T01:39:51;18.70;99.90
24444;DHT22;13346;50.984;5.822;2023-07-24T01:42:20;18.60;99.90
24444;DHT22;13346;50.984;5.822;2023-07-24T01:44:53;18.60;99.90
24444;DHT22;13346;50.984;5.822;2023-07-24T01:47:20;18.70;99.90
24444;DHT22;13346;50.984;5.822;2023-07-24T01:49:47;18.90;99.90
24444;DHT22;13346;50.984;5.822;2023-07-24T01:52:15;18.80;99.90
24444;DHT22;13346;50.984;5.822;2023-07-24T01:54:43;19.00;99.90
24444;DHT22;13346;50.984;5.822;2023-07-24T01:57:10;18.70;99.90
24444;DHT22;13346;50.984;5.822;2023-07-24T01:59:37;18.70;99.90
24444;DHT22;13346;50.984;5.822;2023-07-24T02:02:06;18.70;99.90
24444;DHT22;13346;50.984;5.822;2023-07-24T02:04:34;18.60;99.90
24444;DHT22;13346;50.984;5.822;2023-07-24T02:07:01;18.40;99.90
24444;DHT22;13346;50.984;5.822;2023-07-24T02:09:29;18.40;99.90
24444;DHT22;13346;50.984;5.822;2023-07-24T02:11:56;18.30;99.90
24444;DHT22;13346;50.984;5.822;2023-07-24T02:14:23;18.30;99.90
24444;DHT22;13346;50.984;5.822;2023-07-24T02:16:52;18.10;99.90
24444;DHT22;13346;50.984;5.822;2023-07-24T02:19:21;17.90;99.90
24444;DHT22;13346;50.984;5.822;2023-07-24T02:21:48;17.90;99.90
24444;DHT22;13346;50.984;5.822;2023-07-24T02:24:15;17.80;99.90
24444;DHT22;13346;50.984;5.822;2023-07-24T02:26:43;17.70;99.90
24444;DHT22;13346;50.984;5.822;2023-07-24T02:29:10;17.60;99.90
24444;DHT22;13346;50.984;5.822;2023-07-24T02:31:37;17.60;99.90
24444;DHT22;13346;50.984;5.822;2023-07-24T02:34:04;17.80;99.90
24444;DHT22;13346;50.984;5.822;2023-07-24T02:36:33;17.70;99.90
24444;DHT22;13346;50.984;5.822;2023-07-24T02:39:01;17.70;99.90
24444;DHT22;13346;50.984;5.822;2023-07-24T02:41:28;17.70;99.90
24444;DHT22;13346;50.984;5.822;2023-07-24T02:43:55;17.80;99.90
24444;DHT22;13346;50.984;5.822;2023-07-24T02:46:23;17.90;99.90
24444;DHT22;13346;50.984;5.822;2023-07-24T02:48:51;17.90;99.90
24444;DHT22;13346;50.984;5.822;2023-07-24T02:51:18;17.80;99.90
24444;DHT22;13346;50.984;5.822;2023-07-24T02:53:47;17.90;99.90
24444;DHT22;13346;50.984;5.822;2023-07-24T02:56:14;17.90;99.90
24444;DHT22;13346;50.984;5.822;2023-07-24T02:58:41;18.10;99.90
24444;DHT22;13346;50.984;5.822;2023-07-24T03:01:09;18.30;99.90
24444;DHT22;13346;50.984;5.822;2023-07-24T03:03:37;18.20;99.90
24444;DHT22;13346;50.984;5.822;2023-07-24T03:06:05;18.10;99.90
24444;DHT22;13346;50.984;5.822;2023-07-24T03:08:32;18.20;99.90
24444;DHT22;13346;50.984;5.822;2023-07-24T03:11:04;18.10;99.90
24444;DHT22;13346;50.984;5.822;2023-07-24T03:13:32;18.20;99.90
24444;DHT22;13346;50.984;5.822;2023-07-24T03:16:00;18.10;99.90
24444;DHT22;13346;50.984;5.822;2023-07-24T03:18:27;17.80;99.90
24444;DHT22;13346;50.984;5.822;2023-07-24T03:20:56;17.50;99.90
24444;DHT22;13346;50.984;5.822;2023-07-24T03:23:24;17.40;99.90
24444;DHT22;13346;50.984;5.822;2023-07-24T03:25:51;17.30;99.90
24444;DHT22;13346;50.984;5.822;2023-07-24T03:28:20;17.30;99.90
24444;DHT22;13346;50.984;5.822;2023-07-24T03:30:48;17.20;99.90
24444;DHT22;13346;50.984;5.822;2023-07-24T03:33:15;17.20;99.90
24444;DHT22;13346;50.984;5.822;2023-07-24T03:35:43;17.10;99.90
24444;DHT22;13346;50.984;5.822;2023-07-24T03:38:10;17.10;99.90
24444;DHT22;13346;50.984;5.822;2023-07-24T03:40:37;17.20;99.90
24444;DHT22;13346;50.984;5.822;2023-07-24T03:43:05;17.40;99.90
24444;DHT22;13346;50.984;5.822;2023-07-24T03:45:33;17.40;99.90
24444;DHT22;13346;50.984;5.822;2023-07-24T03:48:00;17.50;99.90
24444;DHT22;13346;50.984;5.822;2023-07-24T03:50:29;17.60;99.90
24444;DHT22;13346;50.984;5.822;2023-07-24T03:52:56;17.60;99.90
24444;DHT22;13346;50.984;5.822;2023-07-24T03:55:24;17.70;99.90
24444;DHT22;13346;50.984;5.822;2023-07-24T03:57:51;17.70;99.90
24444;DHT22;13346;50.984;5.822;2023-07-24T04:00:18;17.50;99.90
24444;DHT22;13346;50.984;5.822;2023-07-24T04:02:48;17.30;99.90
24444;DHT22;13346;50.984;5.822;2023-07-24T04:05:15;17.20;99.90
24444;DHT22;13346;50.984;5.822;2023-07-24T04:07:43;17.20;99.90
24444;DHT22;13346;50.984;5.822;2023-07-24T04:10:10;17.20;99.90
24444;DHT22;13346;50.984;5.822;2023-07-24T04:12:37;17.20;99.90
24444;DHT22;13346;50.984;5.822;2023-07-24T04:15:05;17.50;99.90
24444;DHT22;13346;50.984;5.822;2023-07-24T04:17:33;17.40;99.90
24444;DHT22;13346;50.984;5.822;2023-07-24T04:20:03;17.40;99.90
24444;DHT22;13346;50.984;5.822;2023-07-24T04:22:31;17.50;99.90
24444;DHT22;13346;50.984;5.822;2023-07-24T04:24:58;17.70;99.90
24444;DHT22;13346;50.984;5.822;2023-07-24T04:27:25;17.80;99.90
24444;DHT22;13346;50.984;5.822;2023-07-24T04:29:52;17.80;99.90
24444;DHT22;13346;50.984;5.822;2023-07-24T04:32:20;17.70;99.90
24444;DHT22;13346;50.984;5.822;2023-07-24T04:34:47;17.90;99.90
24444;DHT22;13346;50.984;5.822;2023-07-24T04:37:16;17.90;99.90
24444;DHT22;13346;50.984;5.822;2023-07-24T04:39:43;17.90;99.90
24444;DHT22;13346;50.984;5.822;2023-07-24T04:42:10;17.80;99.90
24444;DHT22;13346;50.984;5.822;2023-07-24T04:44:38;17.70;99.90
24444;DHT22;13346;50.984;5.822;2023-07-24T04:47:05;17.70;99.90
24444;DHT22;13346;50.984;5.822;2023-07-24T04:49:32;17.70;99.90
24444;DHT22;13346;50.984;5.822;2023-07-24T04:51:59;17.80;99.90
24444;DHT22;13346;50.984;5.822;2023-07-24T04:54:28;17.80;99.90
24444;DHT22;13346;50.984;5.822;2023-07-24T04:56:55;17.90;99.90
24444;DHT22;13346;50.984;5.822;2023-07-24T04:59:23;17.90;99.90
24444;DHT22;13346;50.984;5.822;2023-07-24T05:01:50;17.90;99.90
24444;DHT22;13346;50.984;5.822;2023-07-24T05:04:17;17.90;99.90
24444;DHT22;13346;50.984;5.822;2023-07-24T05:06:45;17.90;99.90
24444;DHT22;13346;50.984;5.822;2023-07-24T05:09:12;18.00;99.90
24444;DHT22;13346;50.984;5.822;2023-07-24T05:11:41;18.10;99.90
24444;DHT22;13346;50.984;5.822;2023-07-24T05:14:10;18.00;99.90
24444;DHT22;13346;50.984;5.822;2023-07-24T05:16:37;18.00;99.90
24444;DHT22;13346;50.984;5.822;2023-07-24T05:19:05;18.10;99.90
24444;DHT22;13346;50.984;5.822;2023-07-24T05:21:32;18.10;99.90
24444;DHT22;13346;50.984;5.822;2023-07-24T05:23:59;18.10;99.90
24444;DHT22;13346;50.984;5.822;2023-07-24T05:26:26;18.30;99.90
24444;DHT22;13346;50.984;5.822;2023-07-24T05:28:55;18.60;99.90
24444;DHT22;13346;50.984;5.822;2023-07-24T05:31:22;18.90;99.90
24444;DHT22;13346;50.984;5.822;2023-07-24T05:33:50;18.90;99.90
24444;DHT22;13346;50.984;5.822;2023-07-24T05:36:17;18.60;99.90
24444;DHT22;13346;50.984;5.822;2023-07-24T05:38:44;18.60;99.90
24444;DHT22;13346;50.984;5.822;2023-07-24T05:41:11;18.60;99.90
24444;DHT22;13346;50.984;5.822;2023-07-24T05:43:38;18.60;99.90
24444;DHT22;13346;50.984;5.822;2023-07-24T05:46:07;18.60;99.90
24444;DHT22;13346;50.984;5.822;2023-07-24T05:48:34;18.60;99.90
24444;DHT22;13346;50.984;5.822;2023-07-24T05:51:02;18.50;99.90
24444;DHT22;13346;50.984;5.822;2023-07-24T05:53:29;18.70;99.90
24444;DHT22;13346;50.984;5.822;2023-07-24T05:55:57;18.90;99.90
24444;DHT22;13346;50.984;5.822;2023-07-24T05:58:25;18.80;99.90
24444;DHT22;13346;50.984;5.822;2023-07-24T06:00:53;19.10;99.90
24444;DHT22;13346;50.984;5.822;2023-07-24T06:03:22;19.20;99.90
24444;DHT22;13346;50.984;5.822;2023-07-24T06:05:52;19.00;99.90
24444;DHT22;13346;50.984;5.822;2023-07-24T06:08:20;18.80;99.90
24444;DHT22;13346;50.984;5.822;2023-07-24T06:10:48;18.70;99.90
24444;DHT22;13346;50.984;5.822;2023-07-24T06:13:15;18.80;99.90
24444;DHT22;13346;50.984;5.822;2023-07-24T06:15:43;18.80;99.90
24444;DHT22;13346;50.984;5.822;2023-07-24T06:18:10;18.80;99.90
24444;DHT22;13346;50.984;5.822;2023-07-24T06:20:39;18.80;99.90
24444;DHT22;13346;50.984;5.822;2023-07-24T06:23:06;18.70;99.90
24444;DHT22;13346;50.984;5.822;2023-07-24T06:25:34;18.60;99.90
24444;DHT22;13346;50.984;5.822;2023-07-24T06:28:01;18.50;99.90
24444;DHT22;13346;50.984;5.822;2023-07-24T06:30:28;18.40;99.90
24444;DHT22;13346;50.984;5.822;2023-07-24T06:32:55;18.40;99.90
24444;DHT22;13346;50.984;5.822;2023-07-24T06:35:23;18.20;99.90
24444;DHT22;13346;50.984;5.822;2023-07-24T06:37:51;18.20;99.90
24444;DHT22;13346;50.984;5.822;2023-07-24T06:40:19;18.20;99.90
24444;DHT22;13346;50.984;5.822;2023-07-24T06:42:46;18.20;99.90
24444;DHT22;13346;50.984;5.822;2023-07-24T06:45:13;18.20;99.90
24444;DHT22;13346;50.984;5.822;2023-07-24T06:47:41;18.30;99.90
24444;DHT22;13346;50.984;5.822;2023-07-24T06:50:08;18.30;99.90
24444;DHT22;13346;50.984;5.822;2023-07-24T06:52:36;18.30;99.90
24444;DHT22;13346;50.984;5.822;2023-07-24T06:55:05;17.60;99.90
24444;DHT22;13346;50.984;5.822;2023-07-24T06:57:33;17.60;99.90
24444;DHT22;13346;50.984;5.822;2023-07-24T07:00:00;17.30;99.90
24444;DHT22;13346;50.984;5.822;2023-07-24T07:02:27;17.30;99.90
24444;DHT22;13346;50.984;5.822;2023-07-24T07:04:55;17.20;99.90
24444;DHT22;13346;50.984;5.822;2023-07-24T07:07:22;17.20;99.90
24444;DHT22;13346;50.984;5.822;2023-07-24T07:09:49;17.40;99.90
24444;DHT22;13346;50.984;5.822;2023-07-24T07:12:18;17.50;99.90
24444;DHT22;13346;50.984;5.822;2023-07-24T07:14:45;17.50;99.90
24444;DHT22;13346;50.984;5.822;2023-07-24T07:17:13;17.60;99.90
24444;DHT22;13346;50.984;5.822;2023-07-24T07:19:40;17.50;99.90
24444;DHT22;13346;50.984;5.822;2023-07-24T07:22:07;17.40;99.90
24444;DHT22;13346;50.984;5.822;2023-07-24T07:24:35;17.40;99.90
24444;DHT22;13346;50.984;5.822;2023-07-24T07:27:02;17.40;99.90
24444;DHT22;13346;50.984;5.822;2023-07-24T07:29:31;17.50;99.90
24444;DHT22;13346;50.984;5.822;2023-07-24T07:31:58;17.80;99.90
24444;DHT22;13346;50.984;5.822;2023-07-24T07:34:26;17.80;99.90
24444;DHT22;13346;50.984;5.822;2023-07-24T07:36:53;17.80;99.90
24444;DHT22;13346;50.984;5.822;2023-07-24T07:39:21;17.90;99.90
24444;DHT22;13346;50.984;5.822;2023-07-24T07:41:48;18.20;99.90
24444;DHT22;13346;50.984;5.822;2023-07-24T07:44:15;18.70;99.90
24444;DHT22;13346;50.984;5.822;2023-07-24T07:46:44;18.90;99.90
24444;DHT22;13346;50.984;5.822;2023-07-24T07:49:11;18.90;99.90
24444;DHT22;13346;50.984;5.822;2023-07-24T07:51:38;18.80;99.90
24444;DHT22;13346;50.984;5.822;2023-07-24T07:54:06;19.10;99.90
24444;DHT22;13346;50.984;5.822;2023-07-24T07:56:33;19.30;99.90
24444;DHT22;13346;50.984;5.822;2023-07-24T07:59:00;19.30;99.90
24444;DHT22;13346;50.984;5.822;2023-07-24T08:01:27;19.00;99.90
24444;DHT22;13346;50.984;5.822;2023-07-24T08:04:00;19.10;99.90
24444;DHT22;13346;50.984;5.822;2023-07-24T08:06:28;19.20;99.90
24444;DHT22;13346;50.984;5.822;2023-07-24T08:08:55;19.30;99.90
24444;DHT22;13346;50.984;5.822;2023-07-24T08:11:23;19.30;99.90
24444;DHT22;13346;50.984;5.822;2023-07-24T08:13:51;19.40;99.90
24444;DHT22;13346;50.984;5.822;2023-07-24T08:16:18;19.80;99.90
24444;DHT22;13346;50.984;5.822;2023-07-24T08:18:46;19.30;99.90
24444;DHT22;13346;50.984;5.822;2023-07-24T08:21:15;19.20;99.90
24444;DHT22;13346;50.984;5.822;2023-07-24T08:23:43;19.60;99.90
24444;DHT22;13346;50.984;5.822;2023-07-24T08:26:10;19.40;99.90
24444;DHT22;13346;50.984;5.822;2023-07-24T08:28:37;19.20;99.90
24444;DHT22;13346;50.984;5.822;2023-07-24T08:31:08;18.90;99.90
24444;DHT22;13346;50.984;5.822;2023-07-24T08:33:35;19.40;99.90
24444;DHT22;13346;50.984;5.822;2023-07-24T08:36:04;19.60;99.90
24444;DHT22;13346;50.984;5.822;2023-07-24T08:38:33;19.70;99.90
24444;DHT22;13346;50.984;5.822;2023-07-24T08:41:02;19.80;99.90
24444;DHT22;13346;50.984;5.822;2023-07-24T08:43:30;19.30;99.90
24444;DHT22;13346;50.984;5.822;2023-07-24T08:45:58;19.40;99.90
24444;DHT22;13346;50.984;5.822;2023-07-24T08:48:27;19.70;99.90
24444;DHT22;13346;50.984;5.822;2023-07-24T08:50:57;20.00;99.90
24444;DHT22;13346;50.984;5.822;2023-07-24T08:53:26;20.70;99.90
24444;DHT22;13346;50.984;5.822;2023-07-24T08:55:56;21.00;99.90
24444;DHT22;13346;50.984;5.822;2023-07-24T08:58:24;20.40;99.90
24444;DHT22;13346;50.984;5.822;2023-07-24T09:00:51;20.00;99.90
24444;DHT22;13346;50.984;5.822;2023-07-24T09:03:19;19.90;99.90
24444;DHT22;13346;50.984;5.822;2023-07-24T09:05:46;19.90;99.90
24444;DHT22;13346;50.984;5.822;2023-07-24T09:08:14;19.80;99.90
24444;DHT22;13346;50.984;5.822;2023-07-24T09:10:41;19.60;99.90
24444;DHT22;13346;50.984;5.822;2023-07-24T09:13:12;19.50;99.90
24444;DHT22;13346;50.984;5.822;2023-07-24T09:15:40;19.50;99.90
24444;DHT22;13346;50.984;5.822;2023-07-24T09:18:07;19.60;99.90
24444;DHT22;13346;50.984;5.822;2023-07-24T09:20:39;19.80;99.90
24444;DHT22;13346;50.984;5.822;2023-07-24T09:23:08;19.70;99.90
24444;DHT22;13346;50.984;5.822;2023-07-24T09:25:37;19.60;99.90
24444;DHT22;13346;50.984;5.822;2023-07-24T09:28:12;19.50;99.90
24444;DHT22;13346;50.984;5.822;2023-07-24T09:30:41;19.40;99.90
24444;DHT22;13346;50.984;5.822;2023-07-24T09:33:09;19.30;99.90
24444;DHT22;13346;50.984;5.822;2023-07-24T09:35:37;19.30;99.90
24444;DHT22;13346;50.984;5.822;2023-07-24T09:38:05;19.20;99.90
24444;DHT22;13346;50.984;5.822;2023-07-24T09:40:40;19.10;99.90
24444;DHT22;13346;50.984;5.822;2023-07-24T09:43:17;19.00;99.90
24444;DHT22;13346;50.984;5.822;2023-07-24T09:45:45;19.30;99.90
24444;DHT22;13346;50.984;5.822;2023-07-24T09:48:14;19.50;99.90
24444;DHT22;13346;50.984;5.822;2023-07-24T09:50:44;19.40;99.90
24444;DHT22;13346;50.984;5.822;2023-07-24T09:53:17;19.40;99.90
24444;DHT22;13346;50.984;5.822;2023-07-24T09:55:51;19.70;99.90
24444;DHT22;13346;50.984;5.822;2023-07-24T09:58:24;19.60;99.90
24444;DHT22;13346;50.984;5.822;2023-07-24T10:00:52;19.40;99.90
24444;DHT22;13346;50.984;5.822;2023-07-24T10:03:20;19.20;99.90
24444;DHT22;13346;50.984;5.822;2023-07-24T10:05:48;18.70;99.90
24444;DHT22;13346;50.984;5.822;2023-07-24T10:08:17;18.80;99.90
24444;DHT22;13346;50.984;5.822;2023-07-24T10:10:45;18.60;99.90
24444;DHT22;13346;50.984;5.822;2023-07-24T10:13:14;18.10;99.90
24444;DHT22;13346;50.984;5.822;2023-07-24T10:15:44;18.60;99.90
24444;DHT22;13346;50.984;5.822;2023-07-24T10:18:12;18.50;99.90
24444;DHT22;13346;50.984;5.822;2023-07-24T10:20:40;17.80;99.90
24444;DHT22;13346;50.984;5.822;2023-07-24T10:23:09;17.70;99.90
24444;DHT22;13346;50.984;5.822;2023-07-24T10:25:38;17.70;99.90
24444;DHT22;13346;50.984;5.822;2023-07-24T10:28:07;17.80;99.90
24444;DHT22;13346;50.984;5.822;2023-07-24T10:30:37;18.50;99.90
24444;DHT22;13346;50.984;5.822;2023-07-24T10:33:10;18.80;99.90
24444;DHT22;13346;50.984;5.822;2023-07-24T10:35:41;18.60;99.90
24444;DHT22;13346;50.984;5.822;2023-07-24T10:38:09;17.80;99.90
24444;DHT22;13346;50.984;5.822;2023-07-24T10:40:38;17.50;99.90
24444;DHT22;13346;50.984;5.822;2023-07-24T10:43:07;17.50;99.90
24444;DHT22;13346;50.984;5.822;2023-07-24T10:45:48;17.50;99.90
24444;DHT22;13346;50.984;5.822;2023-07-24T10:48:18;17.40;99.90
24444;DHT22;13346;50.984;5.822;2023-07-24T10:50:47;17.30;99.90
24444;DHT22;13346;50.984;5.822;2023-07-24T10:53:16;17.20;99.90
24444;DHT22;13346;50.984;5.822;2023-07-24T10:55:44;17.30;99.90
24444;DHT22;13346;50.984;5.822;2023-07-24T10:58:13;17.50;99.90
24444;DHT22;13346;50.984;5.822;2023-07-24T11:00:42;18.10;99.90
24444;DHT22;13346;50.984;5.822;2023-07-24T11:03:10;18.10;99.90
24444;DHT22;13346;50.984;5.822;2023-07-24T11:05:40;17.70;99.90
24444;DHT22;13346;50.984;5.822;2023-07-24T11:08:10;17.50;99.90
24444;DHT22;13346;50.984;5.822;2023-07-24T11:10:45;18.00;99.90
24444;DHT22;13346;50.984;5.822;2023-07-24T11:13:13;18.40;99.90
24444;DHT22;13346;50.984;5.822;2023-07-24T11:15:40;18.40;99.90
24444;DHT22;13346;50.984;5.822;2023-07-24T11:18:08;19.10;99.90
24444;DHT22;13346;50.984;5.822;2023-07-24T11:20:38;19.30;99.90
24444;DHT22;13346;50.984;5.822;2023-07-24T11:23:06;18.60;99.90
24444;DHT22;13346;50.984;5.822;2023-07-24T11:25:34;19.70;99.90
24444;DHT22;13346;50.984;5.822;2023-07-24T11:28:01;20.10;99.90
24444;DHT22;13346;50.984;5.822;2023-07-24T11:30:30;19.60;99.90
24444;DHT22;13346;50.984;5.822;2023-07-24T11:32:59;19.40;99.90
24444;DHT22;13346;50.984;5.822;2023-07-24T11:35:27;19.60;99.90
24444;DHT22;13346;50.984;5.822;2023-07-24T11:37:55;20.10;99.90
24444;DHT22;13346;50.984;5.822;2023-07-24T11:40:31;20.80;99.90
24444;DHT22;13346;50.984;5.822;2023-07-24T11:42:58;20.70;99.90
24444;DHT22;13346;50.984;5.822;2023-07-24T11:45:26;21.40;99.90
24444;DHT22;13346;50.984;5.822;2023-07-24T11:47:53;21.10;99.90
24444;DHT22;13346;50.984;5.822;2023-07-24T11:50:23;20.10;99.90
24444;DHT22;13346;50.984;5.822;2023-07-24T11:52:51;19.70;99.90
24444;DHT22;13346;50.984;5.822;2023-07-24T11:55:20;19.50;99.90
24444;DHT22;13346;50.984;5.822;2023-07-24T11:57:58;19.10;99.90
24444;DHT22;13346;50.984;5.822;2023-07-24T12:00:27;18.80;99.90
24444;DHT22;13346;50.984;5.822;2023-07-24T12:02:59;18.80;99.90
24444;DHT22;13346;50.984;5.822;2023-07-24T12:05:27;18.70;99.90
24444;DHT22;13346;50.984;5.822;2023-07-24T12:07:55;18.80;99.90
24444;DHT22;13346;50.984;5.822;2023-07-24T12:10:26;19.20;99.90
24444;DHT22;13346;50.984;5.822;2023-07-24T12:12:57;20.00;99.90
24444;DHT22;13346;50.984;5.822;2023-07-24T12:15:27;20.30;99.90
24444;DHT22;13346;50.984;5.822;2023-07-24T12:17:54;20.50;99.90
24444;DHT22;13346;50.984;5.822;2023-07-24T12:20:22;20.90;99.90
24444;DHT22;13346;50.984;5.822;2023-07-24T12:22:50;20.90;99.90
24444;DHT22;13346;50.984;5.822;2023-07-24T12:25:17;21.10;99.90
24444;DHT22;13346;50.984;5.822;2023-07-24T12:27:45;20.70;99.90
24444;DHT22;13346;50.984;5.822;2023-07-24T12:30:13;21.50;99.90
24444;DHT22;13346;50.984;5.822;2023-07-24T12:32:42;22.20;99.90
24444;DHT22;13346;50.984;5.822;2023-07-24T12:35:10;22.90;99.90
24444;DHT22;13346;50.984;5.822;2023-07-24T12:37:37;22.50;99.90
24444;DHT22;13346;50.984;5.822;2023-07-24T12:40:07;22.20;99.90
24444;DHT22;13346;50.984;5.822;2023-07-24T12:42:35;23.30;99.90
24444;DHT22;13346;50.984;5.822;2023-07-24T12:45:02;22.10;99.90
24444;DHT22;13346;50.984;5.822;2023-07-24T12:47:30;21.50;99.90
24444;DHT22;13346;50.984;5.822;2023-07-24T12:50:00;21.20;99.90
24444;DHT22;13346;50.984;5.822;2023-07-24T12:52:29;20.90;99.90
24444;DHT22;13346;50.984;5.822;2023-07-24T12:54:57;21.10;99.90
24444;DHT22;13346;50.984;5.822;2023-07-24T12:57:24;23.50;99.90
24444;DHT22;13346;50.984;5.822;2023-07-24T12:59:53;22.00;99.90
24444;DHT22;13346;50.984;5.822;2023-07-24T13:02:20;21.90;99.90
24444;DHT22;13346;50.984;5.822;2023-07-24T13:04:47;21.10;99.90
24444;DHT22;13346;50.984;5.822;2023-07-24T13:07:16;22.80;99.90
24444;DHT22;13346;50.984;5.822;2023-07-24T13:09:44;23.40;99.90
24444;DHT22;13346;50.984;5.822;2023-07-24T13:12:11;22.50;99.90
24444;DHT22;13346;50.984;5.822;2023-07-24T13:14:38;22.10;99.90
24444;DHT22;13346;50.984;5.822;2023-07-24T13:17:06;21.60;99.90
24444;DHT22;13346;50.984;5.822;2023-07-24T13:19:34;21.20;99.90
24444;DHT22;13346;50.984;5.822;2023-07-24T13:22:01;20.70;99.90
24444;DHT22;13346;50.984;5.822;2023-07-24T13:24:30;20.20;99.90
24444;DHT22;13346;50.984;5.822;2023-07-24T13:26:57;19.80;99.90
24444;DHT22;13346;50.984;5.822;2023-07-24T13:29:24;17.70;99.90
24444;DHT22;13346;50.984;5.822;2023-07-24T13:31:52;17.20;99.90
24444;DHT22;13346;50.984;5.822;2023-07-24T13:34:19;18.00;99.90
24444;DHT22;13346;50.984;5.822;2023-07-24T13:36:46;18.00;99.90
24444;DHT22;13346;50.984;5.822;2023-07-24T13:39:14;18.00;99.90
24444;DHT22;13346;50.984;5.822;2023-07-24T13:41:42;18.60;99.90
24444;DHT22;13346;50.984;5.822;2023-07-24T13:44:10;18.90;99.90
24444;DHT22;13346;50.984;5.822;2023-07-24T13:46:37;18.50;99.90
24444;DHT22;13346;50.984;5.822;2023-07-24T13:49:05;18.40;99.90
24444;DHT22;13346;50.984;5.822;2023-07-24T13:51:32;19.90;99.90
24444;DHT22;13346;50.984;5.822;2023-07-24T13:53:59;19.80;99.90
24444;DHT22;13346;50.984;5.822;2023-07-24T13:56:26;20.50;99.90
24444;DHT22;13346;50.984;5.822;2023-07-24T13:58:56;20.90;99.90
24444;DHT22;13346;50.984;5.822;2023-07-24T14:01:24;21.40;99.90
24444;DHT22;13346;50.984;5.822;2023-07-24T14:03:51;22.00;99.90
24444;DHT22;13346;50.984;5.822;2023-07-24T14:06:18;21.30;99.90
24444;DHT22;13346;50.984;5.822;2023-07-24T14:08:46;21.10;99.90
24444;DHT22;13346;50.984;5.822;2023-07-24T14:11:13;21.90;99.90
24444;DHT22;13346;50.984;5.822;2023-07-24T14:13:40;22.40;99.90
24444;DHT22;13346;50.984;5.822;2023-07-24T14:16:09;22.90;99.90
24444;DHT22;13346;50.984;5.822;2023-07-24T14:18:37;21.20;99.90
24444;DHT22;13346;50.984;5.822;2023-07-24T14:21:05;22.00;99.90
24444;DHT22;13346;50.984;5.822;2023-07-24T14:23:32;22.80;99.90
24444;DHT22;13346;50.984;5.822;2023-07-24T14:25:59;23.10;99.90
24444;DHT22;13346;50.984;5.822;2023-07-24T14:28:27;22.50;99.90
24444;DHT22;13346;50.984;5.822;2023-07-24T14:30:57;21.90;99.90
24444;DHT22;13346;50.984;5.822;2023-07-24T14:33:25;22.80;99.90
24444;DHT22;13346;50.984;5.822;2023-07-24T14:35:53;24.00;99.90
24444;DHT22;13346;50.984;5.822;2023-07-24T14:38:21;24.00;99.90
24444;DHT22;13346;50.984;5.822;2023-07-24T14:40:48;22.50;99.90
24444;DHT22;13346;50.984;5.822;2023-07-24T14:43:16;22.80;99.90
24444;DHT22;13346;50.984;5.822;2023-07-24T14:45:43;22.10;99.90
24444;DHT22;13346;50.984;5.822;2023-07-24T14:48:10;23.80;99.90
24444;DHT22;13346;50.984;5.822;2023-07-24T14:50:41;22.30;99.90
24444;DHT22;13346;50.984;5.822;2023-07-24T14:53:09;22.80;99.90
24444;DHT22;13346;50.984;5.822;2023-07-24T14:55:36;23.90;99.90
24444;DHT22;13346;50.984;5.822;2023-07-24T14:58:04;22.90;99.90
24444;DHT22;13346;50.984;5.822;2023-07-24T15:00:32;22.30;99.90
24444;DHT22;13346;50.984;5.822;2023-07-24T15:02:59;22.10;99.90
24444;DHT22;13346;50.984;5.822;2023-07-24T15:05:27;23.30;99.90
24444;DHT22;13346;50.984;5.822;2023-07-24T15:07:56;22.50;99.90
24444;DHT22;13346;50.984;5.822;2023-07-24T15:10:23;21.90;99.90
24444;DHT22;13346;50.984;5.822;2023-07-24T15:12:50;21.70;99.90
24444;DHT22;13346;50.984;5.822;2023-07-24T15:15:18;20.70;99.90
24444;DHT22;13346;50.984;5.822;2023-07-24T15:17:45;20.40;99.90
24444;DHT22;13346;50.984;5.822;2023-07-24T15:20:13;20.30;99.90
24444;DHT22;13346;50.984;5.822;2023-07-24T15:22:41;20.30;99.90
24444;DHT22;13346;50.984;5.822;2023-07-24T15:25:10;19.00;99.90
24444;DHT22;13346;50.984;5.822;2023-07-24T15:27:37;19.40;99.90
24444;DHT22;13346;50.984;5.822;2023-07-24T15:30:06;20.60;99.90
24444;DHT22;13346;50.984;5.822;2023-07-24T15:32:34;21.90;99.90
24444;DHT22;13346;50.984;5.822;2023-07-24T15:35:01;20.80;99.90